Time;durP1;ratioP1;P1;durP2;ratioP2;P2;SDS_P1;SDS_P2;PMS_P1;PMS_P2;Temp;Humidity;BMP_temperature;BMP_pressure;BME280_temperature;BME280_humidity;BME280_pressure;Samples;Min_cycle;Max_cycle;Signal;HPM_P1;HPM_P2
2024/01/31 00:01:38;;;;;;;55.80;20.90;;;;;;;0.46;96.15;100813.92;104207;1280;60938;-31
2024/01/31 00:04:04;;;;;;;38.20;14.90;;;;;;;0.45;96.09;100810.99;104210;1282;60923;-32
2024/01/31 00:06:30;;;;;;;31.10;13.90;;;;;;;0.45;96.15;100810.96;104131;1296;60996;-30
2024/01/31 00:08:57;;;;;;;39.50;15.60;;;;;;;0.44;95.85;100811.75;104047;1280;60382;-29
2024/01/31 00:11:25;;;;;;;37.20;15.80;;;;;;;0.45;96.16;100812.73;104283;1282;60440;-33
2024/01/31 00:13:51;;;;;;;30.00;12.80;;;;;;;0.47;96.18;100813.14;104234;1280;60626;-32
2024/01/31 00:16:17;;;;;;;34.10;14.10;;;;;;;0.50;96.10;100810.70;104054;1282;60418;-29
2024/01/31 00:18:43;;;;;;;31.60;14.00;;;;;;;0.50;95.90;100814.55;104198;1282;60481;-30
2024/01/31 00:21:08;;;;;;;34.00;13.90;;;;;;;0.50;96.26;100811.89;104124;1292;60946;-34
2024/01/31 00:23:34;;;;;;;32.50;14.40;;;;;;;0.53;96.11;100817.73;104142;1292;60907;-31
2024/01/31 00:26:00;;;;;;;;;;;;;;;0.52;96.78;100817.42;104160;1282;61029;-29
2024/01/31 00:28:27;;;;;;;28.60;12.00;;;;;;;0.51;96.63;100821.20;104259;1282;60445;-33
2024/01/31 00:30:52;;;;;;;23.60;10.80;;;;;;;0.50;96.19;100823.91;104216;1282;60392;-32
2024/01/31 00:33:18;;;;;;;26.90;11.70;;;;;;;0.52;96.16;100825.38;104200;1292;60577;-30
2024/01/31 00:35:44;;;;;;;30.80;12.10;;;;;;;0.52;96.29;100821.66;104150;1287;61550;-32
2024/01/31 00:38:09;;;;;;;40.60;16.40;;;;;;;0.52;95.92;100823.26;104119;1282;60690;-32
2024/01/31 00:40:35;;;;;;;37.10;14.10;;;;;;;0.52;96.40;100820.44;104189;1282;60504;-32
2024/01/31 00:43:00;;;;;;;44.10;16.50;;;;;;;0.52;96.26;100818.48;104094;1282;60434;-32
2024/01/31 00:45:27;;;;;;;39.00;15.40;;;;;;;0.53;96.40;100813.52;104160;1296;60535;-30
2024/01/31 00:47:53;;;;;;;28.20;12.20;;;;;;;0.54;96.38;100809.92;104133;1282;60557;-30
2024/01/31 00:50:19;;;;;;;26.80;11.10;;;;;;;0.57;96.45;100810.02;104161;1296;60568;-30
2024/01/31 00:52:44;;;;;;;31.80;14.00;;;;;;;0.58;96.20;100807.86;104210;1282;60488;-34
2024/01/31 00:55:10;;;;;;;29.50;12.00;;;;;;;0.62;96.27;100808.13;104148;1293;60565;-29
2024/01/31 00:57:36;;;;;;;34.90;13.60;;;;;;;0.65;96.09;100809.52;104214;1282;60509;-32
2024/01/31 01:00:04;;;;;;;33.70;14.00;;;;;;;0.65;96.06;100807.92;104205;1298;60580;-30
2024/01/31 01:02:30;;;;;;;33.60;14.60;;;;;;;0.63;96.14;100811.43;104119;1286;60532;-29
2024/01/31 01:04:56;;;;;;;37.10;17.80;;;;;;;0.66;96.49;100811.27;104120;1282;60624;-30
2024/01/31 01:07:21;;;;;;;33.00;13.00;;;;;;;0.70;96.53;100808.39;104106;1295;61233;-34
2024/01/31 01:09:47;;;;;;;24.80;11.90;;;;;;;0.69;96.63;100805.56;103468;1296;1002571;-31
2024/01/31 01:12:13;;;;;;;26.60;11.90;;;;;;;0.71;96.70;100804.42;104151;1280;61208;-33
2024/01/31 01:14:38;;;;;;;26.90;11.60;;;;;;;0.71;96.84;100803.14;103945;1283;60510;-33
2024/01/31 01:17:04;;;;;;;28.60;11.90;;;;;;;0.73;96.64;100803.41;104040;1282;60440;-32
2024/01/31 01:19:29;;;;;;;24.60;11.30;;;;;;;0.73;96.77;100800.78;104120;1280;60454;-32
2024/01/31 01:21:56;;;;;;;32.00;13.60;;;;;;;0.74;96.38;100799.13;103541;1283;1002839;-31
2024/01/31 01:24:23;;;;;;;39.30;15.40;;;;;;;0.73;96.25;100795.25;103403;1285;1002493;-34
2024/01/31 01:26:49;;;;;;;29.70;12.80;;;;;;;0.73;96.26;100795.81;104183;1282;70242;-31
2024/01/31 01:29:15;;;;;;;34.30;13.20;;;;;;;0.74;96.40;100793.83;104094;1283;60555;-31
2024/01/31 01:31:40;;;;;;;39.40;16.00;;;;;;;0.74;96.54;100794.89;104140;1282;60554;-31
2024/01/31 01:34:06;;;;;;;37.40;15.40;;;;;;;0.74;96.60;100793.12;104137;1298;60593;-32
2024/01/31 01:36:31;;;;;;;38.50;14.60;;;;;;;0.68;96.75;100795.77;104189;1296;60613;-34
2024/01/31 01:38:57;;;;;;;41.10;16.90;;;;;;;0.66;97.14;100789.94;104216;1292;60668;-29
2024/01/31 01:41:22;;;;;;;37.70;15.00;;;;;;;0.66;97.10;100795.23;104123;1292;60501;-34
2024/01/31 01:43:48;;;;;;;40.40;15.80;;;;;;;0.64;97.18;100788.11;104130;1292;60543;-32
2024/01/31 01:46:18;;;;;;;29.90;12.80;;;;;;;0.65;97.13;100790.13;104147;1280;61560;-33
2024/01/31 01:48:44;;;;;;;38.50;14.60;;;;;;;0.70;97.20;100788.45;104221;1283;73652;-31
2024/01/31 01:51:10;;;;;;;27.50;12.80;;;;;;;0.70;96.86;100793.38;103362;1285;1002316;-33
2024/01/31 02:35:08;;;;;;;23.00;11.80;;;;;;;0.72;99.71;100789.13;103421;1283;613426;-31
2024/01/31 02:37:34;;;;;;;26.40;11.70;;;;;;;0.92;99.36;100789.29;103505;1283;101339;-31
2024/01/31 02:39:59;;;;;;;24.10;11.50;;;;;;;0.93;99.26;100792.75;103640;1282;60342;-31
2024/01/31 02:42:25;;;;;;;23.20;11.40;;;;;;;1.01;98.91;100791.89;103883;1282;59339;-34
2024/01/31 02:44:51;;;;;;;23.90;10.00;;;;;;;1.03;98.79;100789.09;101647;1285;1002903;-31
2024/01/31 02:47:17;;;;;;;24.70;11.90;;;;;;;1.06;98.75;100789.75;103212;1282;1002366;-31
2024/01/31 02:49:42;;;;;;;24.70;10.80;;;;;;;1.10;98.27;100791.28;103067;1285;1002366;-31
2024/01/31 02:52:08;;;;;;;23.70;11.20;;;;;;;1.11;98.09;100792.21;103131;1285;1004388;-33
2024/01/31 02:54:33;;;;;;;20.50;10.40;;;;;;;1.14;97.87;100793.09;103907;1285;59681;-31
2024/01/31 02:56:59;;;;;;;21.70;10.90;;;;;;;1.16;97.54;100794.21;103861;1285;59326;-31
2024/01/31 02:59:24;;;;;;;24.00;11.20;;;;;;;1.22;97.60;100790.12;103983;1304;59848;-33
2024/01/31 03:01:50;;;;;;;23.30;10.80;;;;;;;1.24;97.43;100788.26;104038;1285;60665;-31
2024/01/31 03:04:16;;;;;;;20.70;10.60;;;;;;;1.31;97.76;100790.57;103901;1285;60686;-31
2024/01/31 03:06:42;;;;;;;27.10;11.50;;;;;;;1.39;97.65;100784.89;103963;1285;60888;-31
2024/01/31 03:09:09;;;;;;;29.30;14.10;;;;;;;1.50;97.29;100781.48;103935;1285;72347;-30
2024/01/31 03:11:34;;;;;;;22.70;11.00;;;;;;;1.56;97.28;100781.63;103865;1285;68863;-32
2024/01/31 03:14:00;;;;;;;25.50;11.30;;;;;;;1.64;96.89;100781.77;103848;1282;60754;-31
2024/01/31 03:16:25;;;;;;;23.80;11.50;;;;;;;1.74;96.25;100783.40;103864;1285;60827;-32
2024/01/31 03:18:53;;;;;;;21.20;10.40;;;;;;;1.77;95.54;100784.48;103903;1298;60773;-32
2024/01/31 03:21:19;;;;;;;26.70;11.50;;;;;;;1.79;95.50;100786.56;103942;1283;60769;-30
2024/01/31 03:23:44;;;;;;;24.80;11.90;;;;;;;1.89;94.95;100785.38;103803;1288;60821;-30
2024/01/31 03:26:12;;;;;;;22.50;11.30;;;;;;;1.89;94.55;100791.38;103967;1285;60811;-32
2024/01/31 03:28:37;;;;;;;26.10;11.40;;;;;;;1.91;94.48;100790.19;103833;1285;60796;-30
2024/01/31 03:31:03;;;;;;;22.40;11.00;;;;;;;1.92;94.42;100789.42;103986;1295;60884;-30
2024/01/31 03:33:29;;;;;;;26.00;11.40;;;;;;;2.01;94.06;100788.23;103988;1285;60893;-31
2024/01/31 03:35:54;;;;;;;26.80;11.40;;;;;;;2.04;93.61;100787.53;103951;1285;60895;-31
2024/01/31 03:38:20;;;;;;;27.20;11.60;;;;;;;2.06;94.30;100787.33;103893;1295;60862;-31
2024/01/31 03:40:46;;;;;;;24.30;10.90;;;;;;;2.18;94.17;100787.21;103879;1295;60923;-30
2024/01/31 03:43:12;;;;;;;25.50;10.90;;;;;;;2.26;93.64;100789.46;103859;1283;60892;-30
2024/01/31 03:45:37;;;;;;;26.90;11.50;;;;;;;2.30;93.22;100786.20;103829;1285;60898;-29
2024/01/31 03:48:03;;;;;;;23.30;10.30;;;;;;;2.34;92.74;100789.44;103852;1285;60762;-30
2024/01/31 03:50:29;;;;;;;26.70;12.10;;;;;;;2.40;92.73;100784.79;103966;1285;60889;-30
2024/01/31 03:52:55;;;;;;;;;;;;;;;2.46;92.68;100787.52;103940;1285;60869;-33
2024/01/31 03:55:20;;;;;;;24.20;10.70;;;;;;;2.47;92.25;100785.16;103938;1299;61149;-34
2024/01/31 03:57:46;;;;;;;22.70;10.60;;;;;;;2.50;92.22;100784.57;103951;1285;60897;-29
2024/01/31 04:00:12;;;;;;;19.70;10.20;;;;;;;2.54;91.93;100784.45;103900;1295;60904;-30
2024/01/31 04:02:38;;;;;;;26.10;11.20;;;;;;;2.58;91.64;100779.25;103898;1283;73082;-30
2024/01/31 04:05:04;;;;;;;25.20;11.60;;;;;;;2.61;91.51;100778.48;103989;1285;60908;-31
2024/01/31 04:07:29;;;;;;;;;;;;;;;2.65;91.22;100777.86;103829;1298;60898;-31
2024/01/31 04:09:55;;;;;;;25.70;10.90;;;;;;;2.64;91.14;100780.77;103823;1295;61231;-31
2024/01/31 04:12:21;;;;;;;22.20;11.40;;;;;;;2.66;91.11;100783.10;103902;1285;60908;-30
2024/01/31 04:14:46;;;;;;;26.50;11.40;;;;;;;2.73;90.69;100784.15;103888;1299;60810;-31
2024/01/31 04:17:12;;;;;;;23.30;11.00;;;;;;;2.72;90.68;100781.92;103926;1298;60821;-32
2024/01/31 04:19:38;;;;;;;26.70;12.00;;;;;;;2.72;90.63;100781.05;103778;1285;72777;-31
2024/01/31 04:22:03;;;;;;;21.90;10.20;;;;;;;2.75;90.78;100786.10;103870;1285;60827;-32
2024/01/31 04:24:29;;;;;;;20.30;10.80;;;;;;;2.80;91.08;100790.38;103927;1295;60888;-31
2024/01/31 04:26:54;;;;;;;26.30;12.10;;;;;;;2.91;90.47;100794.67;103898;1295;60898;-29
2024/01/31 04:29:20;;;;;;;47.50;18.40;;;;;;;2.96;88.94;100795.35;103946;1298;60801;-32
2024/01/31 04:31:51;;;;;;;42.00;16.90;;;;;;;2.94;88.40;100794.46;103899;1286;60830;-30
2024/01/31 04:34:17;;;;;;;32.70;14.40;;;;;;;2.84;88.71;100793.11;103851;1285;72064;-31
2024/01/31 04:36:42;;;;;;;29.40;13.50;;;;;;;2.78;89.01;100793.83;103832;1295;60854;-30
2024/01/31 04:39:08;;;;;;;25.50;12.30;;;;;;;2.81;88.87;100793.32;103826;1288;60811;-31
2024/01/31 04:41:34;;;;;;;21.70;11.20;;;;;;;2.75;89.86;100797.27;103850;1295;60916;-30
2024/01/31 04:43:59;;;;;;;24.20;11.30;;;;;;;2.86;89.39;100796.48;103908;1299;60914;-31
2024/01/31 04:46:25;;;;;;;26.60;12.60;;;;;;;2.94;88.56;100795.34;103929;1287;60831;-31
2024/01/31 04:48:50;;;;;;;23.80;11.60;;;;;;;2.85;88.67;100797.46;103910;1302;60913;-30
2024/01/31 04:51:16;;;;;;;25.20;12.60;;;;;;;2.84;88.61;100800.54;103837;1285;60802;-28
2024/01/31 04:53:42;;;;;;;26.20;11.00;;;;;;;2.79;89.30;100803.67;103895;1285;60911;-33
2024/01/31 04:56:08;;;;;;;22.40;11.50;;;;;;;2.85;89.74;100804.31;103905;1299;61372;-30
2024/01/31 04:58:34;;;;;;;22.20;11.20;;;;;;;2.86;89.22;100796.33;103943;1285;60951;-32
2024/01/31 05:01:00;;;;;;;24.80;11.60;;;;;;;2.89;89.56;100793.12;103868;1285;60869;-30
2024/01/31 05:03:25;;;;;;;28.10;13.40;;;;;;;2.91;89.68;100801.42;103826;1299;61323;-31
2024/01/31 05:05:51;;;;;;;26.00;12.60;;;;;;;2.98;89.86;100803.86;103857;1299;60885;-30
2024/01/31 05:08:17;;;;;;;32.10;15.20;;;;;;;3.05;89.27;100810.09;103855;1285;60753;-31
2024/01/31 05:10:45;;;;;;;23.80;12.30;;;;;;;3.06;88.80;100809.30;103947;1302;60876;-31
2024/01/31 05:13:12;;;;;;;23.90;12.00;;;;;;;2.99;88.97;100816.90;103959;1285;72418;-32
2024/01/31 05:15:38;;;;;;;23.60;11.80;;;;;;;3.07;88.70;100815.11;103945;1285;60772;-32
2024/01/31 05:18:04;;;;;;;21.30;11.00;;;;;;;3.03;87.88;100818.77;103888;1285;60451;-30
2024/01/31 05:20:29;;;;;;;22.10;11.30;;;;;;;3.09;87.69;100819.00;103829;1298;60286;-30
2024/01/31 05:22:56;;;;;;;25.60;11.90;;;;;;;3.05;87.18;100826.39;103940;1285;60904;-32
2024/01/31 05:25:21;;;;;;;28.20;11.90;;;;;;;2.96;87.90;100821.90;103772;1288;60942;-31
2024/01/31 05:27:49;;;;;;;25.30;11.60;;;;;;;2.94;88.02;100816.08;103874;1294;60885;-32
2024/01/31 05:30:14;;;;;;;25.30;11.50;;;;;;;2.86;88.46;100815.95;103873;1283;60799;-30
2024/01/31 05:32:40;;;;;;;28.40;12.20;;;;;;;2.85;88.70;100813.50;103871;1299;60808;-32
2024/01/31 05:35:07;;;;;;;19.90;10.70;;;;;;;2.85;88.75;100813.14;103926;1285;60793;-32
2024/01/31 05:37:33;;;;;;;25.40;12.50;;;;;;;2.88;88.95;100816.33;103885;1285;60889;-30
2024/01/31 05:39:59;;;;;;;27.90;11.80;;;;;;;2.86;89.10;100816.86;103870;1295;60901;-32
2024/01/31 05:42:24;;;;;;;24.70;12.20;;;;;;;2.90;88.97;100817.92;103826;1285;60818;-30
2024/01/31 05:44:53;;;;;;;24.30;12.40;;;;;;;2.86;89.13;100817.34;103999;1299;60873;-30
2024/01/31 05:47:19;;;;;;;31.30;12.90;;;;;;;2.97;88.75;100823.44;103912;1285;60746;-32
2024/01/31 05:49:47;;;;;;;25.30;12.50;;;;;;;2.90;88.80;100822.70;103960;1285;60725;-30
2024/01/31 05:52:13;;;;;;;28.60;13.00;;;;;;;2.90;88.93;100825.90;103855;1285;60879;-33
2024/01/31 05:54:39;;;;;;;24.20;12.50;;;;;;;2.89;89.23;100823.85;103823;1297;61606;-29
2024/01/31 05:57:04;;;;;;;;;;;;;;;2.87;88.98;100825.40;103897;1286;60793;-29
2024/01/31 05:59:30;;;;;;;18.60;10.40;;;;;;;2.78;89.17;100826.08;103769;1298;60810;-30
2024/01/31 06:01:55;;;;;;;27.90;13.40;;;;;;;2.80;89.11;100826.27;103828;1288;60875;-31
2024/01/31 06:04:21;;;;;;;25.20;12.00;;;;;;;2.73;89.19;100827.28;103818;1285;60888;-30
2024/01/31 06:06:46;;;;;;;29.60;11.50;;;;;;;2.72;89.71;100832.48;103948;1299;60878;-36
2024/01/31 06:09:12;;;;;;;26.00;12.80;;;;;;;2.71;89.61;100824.27;103992;1298;60868;-32
2024/01/31 06:11:38;;;;;;;25.50;13.30;;;;;;;2.66;90.36;100825.55;103834;1293;60798;-32
2024/01/31 06:14:04;;;;;;;;;;;;;;;2.69;90.43;100830.45;103894;1285;60785;-30
2024/01/31 06:16:30;;;;;;;24.00;11.90;;;;;;;2.73;90.53;100834.88;103909;1285;60927;-32
2024/01/31 06:18:56;;;;;;;28.80;12.00;;;;;;;2.77;90.39;100834.23;103821;1297;60915;-31
2024/01/31 06:21:21;;;;;;;21.50;10.90;;;;;;;2.81;90.41;100834.48;103975;1285;60873;-31
2024/01/31 06:23:47;;;;;;;25.20;12.40;;;;;;;2.89;90.18;100839.61;103758;1299;60861;-32
2024/01/31 06:26:13;;;;;;;;;;;;;;;2.85;90.01;100841.34;103773;1289;60885;-30
2024/01/31 06:28:39;;;;;;;26.30;12.50;;;;;;;2.84;90.20;100843.33;103896;1301;60904;-32
2024/01/31 06:31:16;;;;;;;24.00;11.50;;;;;;;2.85;90.06;100840.27;103941;1282;71904;-32
2024/01/31 06:33:41;;;;;;;23.50;12.20;;;;;;;2.86;90.21;100836.30;103887;1285;69016;-32
2024/01/31 06:36:08;;;;;;;22.00;11.50;;;;;;;2.89;90.42;100839.75;103817;1285;60831;-30
2024/01/31 06:38:34;;;;;;;29.20;12.70;;;;;;;3.00;89.52;100838.58;103942;1285;61686;-30
2024/01/31 06:40:59;;;;;;;24.10;12.20;;;;;;;2.91;89.96;100839.09;103875;1301;61704;-32
2024/01/31 06:43:25;;;;;;;23.20;12.20;;;;;;;2.93;89.94;100832.37;103853;1285;61743;-31
2024/01/31 06:45:52;;;;;;;23.10;11.60;;;;;;;2.93;90.27;100831.17;103901;1285;61668;-31
2024/01/31 06:48:18;;;;;;;27.10;12.60;;;;;;;2.91;90.91;100834.82;103913;1285;61698;-31
2024/01/31 06:50:43;;;;;;;28.60;11.20;;;;;;;3.01;91.03;100837.79;103852;1299;61644;-30
2024/01/31 06:53:09;;;;;;;;;;;;;;;3.10;90.08;100839.27;103876;1287;61475;-31
2024/01/31 06:55:35;;;;;;;24.90;11.50;;;;;;;3.04;89.91;100840.40;103917;1296;60571;-32
2024/01/31 06:58:00;;;;;;;24.70;12.20;;;;;;;3.13;89.66;100837.14;103949;1301;60571;-30
2024/01/31 07:00:26;;;;;;;26.80;13.10;;;;;;;3.07;89.81;100841.25;103814;1286;66385;-30
2024/01/31 07:02:53;;;;;;;;;;;;;;;3.07;90.08;100840.72;103912;1285;60565;-32
2024/01/31 07:05:19;;;;;;;23.70;11.90;;;;;;;3.09;90.40;100842.90;103911;1285;60414;-31
2024/01/31 07:07:46;;;;;;;;;;;;;;;3.14;90.78;100844.50;103930;1286;60546;-30
2024/01/31 07:10:11;;;;;;;25.00;13.40;;;;;;;3.21;90.08;100843.73;103882;1282;60463;-31
2024/01/31 07:12:38;;;;;;;23.30;12.70;;;;;;;3.19;89.95;100846.05;103797;1289;60575;-32
2024/01/31 07:15:05;;;;;;;23.70;12.60;;;;;;;3.18;90.55;100851.28;103845;1285;66582;-31
2024/01/31 07:17:31;;;;;;;20.40;11.40;;;;;;;3.11;91.70;100854.23;103824;1288;69903;-32
2024/01/31 07:19:56;;;;;;;24.70;12.40;;;;;;;3.12;91.75;100857.90;103935;1285;61691;-28
2024/01/31 07:22:22;;;;;;;27.30;12.70;;;;;;;3.20;91.41;100859.80;103854;1291;61803;-31
2024/01/31 07:24:49;;;;;;;25.90;13.90;;;;;;;3.19;91.46;100865.66;103910;1285;61529;-31
2024/01/31 07:27:15;;;;;;;30.90;14.20;;;;;;;3.15;91.72;100862.96;103894;1299;61702;-30
2024/01/31 07:29:47;;;;;;;31.00;13.60;;;;;;;3.09;92.17;100868.00;103880;1295;61709;-32
2024/01/31 07:32:12;;;;;;;29.20;14.20;;;;;;;3.08;92.54;100865.29;103816;1288;72355;-29
2024/01/31 07:34:38;;;;;;;28.60;13.80;;;;;;;3.03;93.08;100863.83;103820;1295;61698;-29
2024/01/31 07:37:05;;;;;;;28.80;14.40;;;;;;;3.15;93.02;100861.56;103816;1288;61681;-31
2024/01/31 07:39:31;;;;;;;27.20;14.20;;;;;;;3.17;92.12;100864.03;103862;1291;61678;-31
2024/01/31 07:41:57;;;;;;;29.70;14.00;;;;;;;3.20;91.97;100868.26;103835;1299;62044;-32
2024/01/31 07:44:22;;;;;;;26.60;14.00;;;;;;;3.20;92.30;100871.48;103850;1299;61701;-32
2024/01/31 07:46:48;;;;;;;29.30;13.20;;;;;;;3.19;93.12;100876.46;103821;1295;61793;-31
2024/01/31 07:49:14;;;;;;;28.80;13.70;;;;;;;3.31;92.86;100880.38;103890;1287;61729;-31
2024/01/31 07:51:43;;;;;;;28.70;14.40;;;;;;;3.28;92.93;100876.68;103866;1285;61788;-32
2024/01/31 07:54:09;;;;;;;26.20;13.30;;;;;;;3.29;93.01;100878.73;103883;1285;61704;-31
2024/01/31 07:56:36;;;;;;;28.60;13.70;;;;;;;3.34;92.88;100881.58;103850;1295;61951;-31
2024/01/31 07:59:03;;;;;;;26.00;14.10;;;;;;;3.34;92.82;100887.92;103919;1285;67913;-33
2024/01/31 08:01:28;;;;;;;27.00;13.20;;;;;;;3.34;93.38;100892.39;103831;1285;72829;-30
2024/01/31 08:03:55;;;;;;;30.00;13.70;;;;;;;3.41;93.49;100895.06;103880;1285;61704;-33
2024/01/31 08:06:20;;;;;;;32.20;14.10;;;;;;;3.48;93.06;100891.55;103841;1297;61708;-30
2024/01/31 08:08:46;;;;;;;26.60;13.40;;;;;;;3.51;92.73;100894.63;103887;1295;61627;-29
2024/01/31 08:11:12;;;;;;;30.70;14.40;;;;;;;3.56;92.25;100886.01;103892;1300;61808;-31
2024/01/31 08:13:40;;;;;;;;;;;;;;;3.50;92.34;100886.44;103820;1296;61660;-34
2024/01/31 08:16:06;;;;;;;29.90;14.40;;;;;;;3.48;92.87;100886.86;103853;1285;61599;-30
2024/01/31 08:18:32;;;;;;;26.70;13.20;;;;;;;3.42;92.95;100888.92;103791;1285;61734;-30
2024/01/31 08:20:58;;;;;;;28.60;13.60;;;;;;;3.50;93.23;100883.90;103882;1285;61704;-31
2024/01/31 08:23:23;;;;;;;27.50;14.00;;;;;;;3.46;93.98;100893.93;103975;1302;61687;-33
2024/01/31 08:25:49;;;;;;;31.70;14.70;;;;;;;3.49;94.38;100894.29;103833;1285;61649;-32
2024/01/31 08:28:15;;;;;;;;;;;;;;;3.51;94.10;100887.41;103867;1285;61593;-33
2024/01/31 08:30:40;;;;;;;31.80;14.70;;;;;;;3.41;94.88;100889.70;103932;1302;63270;-31
2024/01/31 08:33:06;;;;;;;31.60;14.20;;;;;;;3.27;96.26;100890.73;103842;1286;61900;-31
2024/01/31 08:35:32;;;;;;;32.20;14.30;;;;;;;3.24;98.11;100901.74;103860;1288;61711;-29
2024/01/31 08:37:58;;;;;;;29.40;14.40;;;;;;;3.32;97.82;100902.09;103943;1303;62087;-31
2024/01/31 08:40:24;;;;;;;31.40;14.40;;;;;;;3.19;98.52;100901.64;103873;1285;62048;-34
2024/01/31 08:42:49;;;;;;;29.00;14.80;;;;;;;3.09;99.88;100904.98;103872;1302;61677;-34
2024/01/31 08:45:15;;;;;;;31.60;15.00;;;;;;;3.15;99.66;100905.43;103655;1289;61806;-34
2024/01/31 08:47:41;;;;;;;32.90;15.20;;;;;;;3.27;99.92;100907.23;103827;1285;61653;-31
2024/01/31 08:50:07;;;;;;;;;;;;;;;3.26;99.94;100902.33;103909;1286;61586;-31
2024/01/31 08:52:34;;;;;;;35.50;16.00;;;;;;;3.23;100.00;100900.42;103890;1295;61621;-34
2024/01/31 09:01:08;;;;;;;35.70;16.10;;;;;;;3.35;100.00;100905.80;103173;1287;598383;-34
2024/01/31 09:03:33;;;;;;;36.50;16.10;;;;;;;3.40;100.00;100904.71;103251;1289;60515;-31
2024/01/31 09:05:59;;;;;;;31.10;15.90;;;;;;;3.38;100.00;100902.68;103248;1288;60499;-32
2024/01/31 09:08:24;;;;;;;31.70;15.60;;;;;;;3.52;100.00;100904.45;103191;1294;60392;-32
2024/01/31 09:10:50;;;;;;;37.50;17.00;;;;;;;3.52;100.00;100904.47;103237;1288;60501;-32
2024/01/31 09:13:16;;;;;;;31.80;16.60;;;;;;;3.60;100.00;100898.26;103144;1288;60473;-32
2024/01/31 09:15:42;;;;;;;38.80;17.10;;;;;;;3.65;100.00;100903.73;103270;1291;165647;-32
2024/01/31 09:18:07;;;;;;;30.00;16.40;;;;;;;3.73;100.00;100897.76;103346;1289;61901;-31
2024/01/31 09:20:33;;;;;;;30.00;15.00;;;;;;;3.76;100.00;100897.20;103300;1289;60914;-31
2024/01/31 09:22:58;;;;;;;37.10;16.90;;;;;;;3.74;100.00;100890.63;103392;1285;60453;-30
2024/01/31 09:25:24;;;;;;;35.60;17.70;;;;;;;3.88;100.00;100882.13;103338;1285;60880;-32
2024/01/31 09:27:50;;;;;;;32.00;16.00;;;;;;;3.91;100.00;100882.55;103177;1286;61142;-33
2024/01/31 09:30:16;;;;;;;36.00;16.70;;;;;;;3.98;100.00;100884.19;103218;1291;60976;-32
2024/01/31 09:32:41;;;;;;;;;;;;;;;3.96;100.00;100882.77;103439;1286;60716;-32
2024/01/31 09:35:07;;;;;;;36.00;16.50;;;;;;;3.97;100.00;100883.39;103284;1291;60811;-32
2024/01/31 09:37:33;;;;;;;39.50;18.50;;;;;;;4.01;100.00;100885.38;103442;1285;60805;-31
2024/01/31 09:39:59;;;;;;;37.80;18.10;;;;;;;4.12;100.00;100887.52;103352;1286;60924;-31
2024/01/31 09:42:26;;;;;;;38.50;17.90;;;;;;;4.03;100.00;100888.77;103400;1289;60892;-31
2024/01/31 09:44:52;;;;;;;43.40;20.00;;;;;;;4.13;100.00;100884.41;103310;1289;61457;-34
2024/01/31 09:47:17;;;;;;;37.20;18.30;;;;;;;4.25;100.00;100884.05;103364;1285;60892;-29
2024/01/31 09:49:43;;;;;;;31.30;15.60;;;;;;;4.33;100.00;100886.30;103328;1286;60886;-31
2024/01/31 09:52:08;;;;;;;40.70;18.50;;;;;;;4.27;100.00;100890.11;103395;1286;60809;-29
2024/01/31 09:54:34;;;;;;;36.40;18.10;;;;;;;4.26;100.00;100891.10;103319;1290;61333;-30
2024/01/31 09:57:00;;;;;;;;;;;;;;;4.31;100.00;100886.27;103339;1290;60803;-30
2024/01/31 09:59:26;;;;;;;39.60;18.50;;;;;;;4.27;100.00;100889.09;103392;1289;60790;-33
2024/01/31 10:01:55;;;;;;;32.60;17.40;;;;;;;4.29;100.00;100888.56;103403;1287;60971;-31
2024/01/31 10:04:21;;;;;;;37.40;17.50;;;;;;;4.29;100.00;100888.71;103336;1285;68693;-31
2024/01/31 10:06:46;;;;;;;38.00;17.40;;;;;;;4.36;100.00;100890.14;103379;1286;60914;-30
2024/01/31 10:09:13;;;;;;;30.20;15.30;;;;;;;4.48;100.00;100886.33;103375;1289;60882;-33
2024/01/31 10:11:44;;;;;;;36.60;17.40;;;;;;;4.48;100.00;100886.67;103450;1288;60786;-31
2024/01/31 10:14:12;;;;;;;35.30;17.90;;;;;;;4.63;100.00;100886.52;103380;1286;60825;-33
2024/01/31 10:16:37;;;;;;;31.80;16.80;;;;;;;4.57;100.00;100889.02;103397;1286;72931;-32
2024/01/31 10:19:03;;;;;;;36.50;17.20;;;;;;;4.61;100.00;100886.51;103355;1286;60908;-31
2024/01/31 10:21:29;;;;;;;33.80;17.30;;;;;;;4.68;99.99;100885.77;103272;1286;60789;-30
2024/01/31 10:23:59;;;;;;;34.60;17.30;;;;;;;4.77;99.99;100882.27;103185;1294;60911;-30
2024/01/31 10:26:26;;;;;;;33.20;15.40;;;;;;;4.80;99.79;100878.67;103354;1291;60899;-31
2024/01/31 10:28:52;;;;;;;31.60;15.90;;;;;;;4.82;99.82;100875.50;103419;1287;60789;-30
2024/01/31 10:31:17;;;;;;;35.10;18.00;;;;;;;4.92;99.58;100871.12;103350;1288;60907;-32
2024/01/31 10:33:44;;;;;;;40.90;18.30;;;;;;;5.07;98.49;100862.23;103428;1287;60821;-31
2024/01/31 10:36:10;;;;;;;36.10;18.20;;;;;;;5.13;97.57;100859.42;103423;1290;60812;-32
2024/01/31 10:38:36;;;;;;;;;;;;;;;5.09;97.42;100859.60;103450;1286;60907;-31
2024/01/31 10:41:02;;;;;;;34.30;16.30;;;;;;;5.22;97.01;100855.74;103097;1286;60902;-32
2024/01/31 10:43:28;;;;;;;37.50;18.40;;;;;;;5.27;97.13;100853.69;103528;1286;60761;-30
2024/01/31 10:45:53;;;;;;;39.60;18.30;;;;;;;5.30;97.10;100849.55;103375;1286;60909;-32
2024/01/31 10:48:19;;;;;;;35.50;16.00;;;;;;;5.41;97.05;100844.02;103433;1287;60850;-31
2024/01/31 10:50:45;;;;;;;31.20;16.50;;;;;;;5.47;96.42;100841.39;103381;1290;60915;-33
2024/01/31 10:53:10;;;;;;;35.30;16.80;;;;;;;5.47;96.58;100839.27;103314;1289;60898;-31
2024/01/31 10:55:37;;;;;;;34.20;16.40;;;;;;;5.72;95.19;100836.42;103328;1291;60942;-33
2024/01/31 10:58:03;;;;;;;37.10;17.90;;;;;;;5.78;94.19;100838.23;103373;1289;60876;-33
2024/01/31 11:00:30;;;;;;;34.00;17.20;;;;;;;5.78;94.37;100833.75;103392;1290;66439;-33
2024/01/31 11:02:56;;;;;;;;;;;;;;;5.77;93.93;100831.35;103485;1289;60784;-30
2024/01/31 11:05:22;;;;;;;37.50;19.00;;;;;;;5.85;93.47;100836.20;103468;1286;60885;-31
2024/01/31 11:07:48;;;;;;;;;;;;;;;5.95;93.15;100832.04;103403;1286;60852;-32
2024/01/31 11:10:17;;;;;;;35.70;16.70;;;;;;;5.86;92.82;100828.33;103443;1286;60985;-32
2024/01/31 11:12:43;;;;;;;32.90;15.40;;;;;;;5.96;92.66;100831.54;103348;1287;72384;-32
2024/01/31 11:15:09;;;;;;;32.80;15.90;;;;;;;5.89;92.56;100834.64;103377;1287;60933;-30
2024/01/31 11:17:35;;;;;;;35.40;17.00;;;;;;;5.93;92.96;100837.68;103350;1286;60800;-31
2024/01/31 11:20:01;;;;;;;30.70;15.20;;;;;;;5.88;94.08;100846.11;103594;1288;60911;-32
2024/01/31 11:22:28;;;;;;;34.80;17.20;;;;;;;6.00;93.47;100841.48;103685;1288;60904;-31
2024/01/31 11:24:54;;;;;;;31.30;17.50;;;;;;;6.06;93.46;100835.34;103654;1285;60903;-30
2024/01/31 11:27:20;;;;;;;34.60;18.20;;;;;;;6.10;94.15;100835.17;103570;1285;60879;-30
2024/01/31 11:29:49;;;;;;;;;;;;;;;6.18;94.51;100834.51;103719;1285;60806;-33
2024/01/31 11:32:15;;;;;;;31.00;15.10;;;;;;;6.21;93.50;100831.71;103616;1285;72372;-32
2024/01/31 11:34:41;;;;;;;35.90;18.00;;;;;;;6.43;91.43;100822.68;103326;1291;60824;-32
2024/01/31 11:37:07;;;;;;;40.50;18.80;;;;;;;6.39;91.88;100815.39;103629;1284;60925;-33
2024/01/31 11:39:33;;;;;;;;;;;;;;;6.49;91.02;100807.70;103668;1288;60898;-33
2024/01/31 11:41:59;;;;;;;34.70;16.80;;;;;;;6.41;91.48;100810.40;103626;1285;60971;-32
2024/01/31 11:44:25;;;;;;;;;;;;;;;6.43;92.13;100812.41;103710;1285;60892;-32
2024/01/31 11:46:51;;;;;;;35.40;16.90;;;;;;;6.40;91.80;100812.62;103603;1286;60825;-32
2024/01/31 11:49:18;;;;;;;33.30;17.00;;;;;;;6.47;92.26;100808.81;103656;1286;60933;-31
2024/01/31 11:51:43;;;;;;;;;;;;;;;6.60;91.81;100809.31;103656;1284;60841;-31
2024/01/31 11:54:09;;;;;;;39.20;17.90;;;;;;;6.72;89.03;100803.89;103667;1285;60843;-30
2024/01/31 11:56:35;;;;;;;36.20;17.50;;;;;;;6.69;88.61;100797.06;103692;1288;60819;-31